Time;durP1;ratioP1;P1;durP2;ratioP2;P2;SDS_P1;SDS_P2;PMS_P1;PMS_P2;Temp;Humidity;BMP_temperature;BMP_pressure;BME280_temperature;BME280_humidity;BME280_pressure;Samples;Min_cycle;Max_cycle;Signal;HPM_P1;HPM_P2
2023/06/15 00:00:43;;;;;;;4.75;3.60;;;;;;;17.14;59.04;101946.41;4994692;28;20130;-75
2023/06/15 00:03:10;;;;;;;3.95;3.65;;;;;;;17.13;59.07;101949.56;4992925;28;20122;-75
2023/06/15 00:05:37;;;;;;;3.95;3.55;;;;;;;17.12;59.69;101948.06;4994226;28;20046;-75
2023/06/15 00:08:04;;;;;;;5.63;3.60;;;;;;;17.11;60.45;101946.56;4993730;28;20058;-75
2023/06/15 00:10:31;;;;;;;23.08;4.50;;;;;;;17.07;59.94;101944.03;4994966;28;20130;-74
2023/06/15 00:12:58;;;;;;;7.55;4.13;;;;;;;17.07;60.68;101946.72;4994358;28;20047;-74
2023/06/15 00:15:27;;;;;;;9.13;4.50;;;;;;;17.06;60.62;101947.19;4994308;28;20053;-75
2023/06/15 00:17:54;;;;;;;4.60;4.07;;;;;;;17.05;61.13;101946.44;4993686;28;20074;-75
2023/06/15 00:20:28;;;;;;;3.97;3.67;;;;;;;17.05;61.48;101943.00;4994623;28;20047;-75
2023/06/15 00:22:55;;;;;;;5.97;4.60;;;;;;;17.06;61.53;101947.19;4994128;28;20054;-75
2023/06/15 00:25:22;;;;;;;4.72;3.75;;;;;;;17.06;61.67;101947.19;4995161;28;20047;-76
2023/06/15 00:27:49;;;;;;;3.90;3.60;;;;;;;17.05;62.19;101943.00;4994675;28;20051;-76
2023/06/15 00:30:16;;;;;;;5.40;3.90;;;;;;;17.05;61.88;101945.69;4993892;28;20516;-75
2023/06/15 00:32:42;;;;;;;5.50;3.80;;;;;;;17.02;62.51;101950.03;4994311;28;20046;-75
2023/06/15 00:35:09;;;;;;;6.55;3.78;;;;;;;17.01;62.85;101945.84;4976965;28;20077;-75
2023/06/15 00:37:36;;;;;;;6.72;4.20;;;;;;;17.02;62.86;101949.28;4993814;28;20415;-75
2023/06/15 00:40:05;;;;;;;5.05;3.92;;;;;;;17.02;62.70;101950.03;4994486;28;20079;-75
2023/06/15 00:42:32;;;;;;;4.70;3.67;;;;;;;17.00;63.49;101942.41;4992704;28;20684;-75
2023/06/15 00:44:59;;;;;;;5.43;3.80;;;;;;;16.95;63.40;101942.28;4992547;28;20525;-75
2023/06/15 00:47:26;;;;;;;8.10;4.07;;;;;;;16.93;64.08;101955.44;4993583;28;20526;-75
2023/06/15 00:49:54;;;;;;;4.10;3.80;;;;;;;16.91;63.82;101947.09;4976384;28;20051;-75
2023/06/15 00:52:22;;;;;;;5.63;3.88;;;;;;;16.85;64.42;101946.22;4993989;28;20038;-75
2023/06/15 00:54:50;;;;;;;4.53;3.85;;;;;;;16.81;64.21;101943.69;4994113;28;20505;-76
2023/06/15 00:57:18;;;;;;;7.28;4.70;;;;;;;16.80;64.38;101952.19;4976452;28;20583;-75
2023/06/15 00:59:45;;;;;;;7.40;4.07;;;;;;;16.76;65.11;101946.25;4976327;28;20051;-75
2023/06/15 01:02:12;;;;;;;6.78;3.85;;;;;;;16.68;65.48;101948.53;4993572;28;20101;-75
2023/06/15 01:04:39;;;;;;;4.10;3.72;;;;;;;16.65;65.63;101962.88;4993471;28;20047;-74
2023/06/15 01:07:10;;;;;;;4.15;3.85;;;;;;;16.59;65.47;101957.31;4977089;28;20059;-75
2023/06/15 01:09:40;;;;;;;4.38;4.00;;;;;;;16.54;65.97;101957.19;4975267;28;20059;-75
2023/06/15 01:12:11;;;;;;;4.32;4.03;;;;;;;16.49;66.46;101961.22;4976084;28;20126;-74
2023/06/15 01:14:39;;;;;;;3.88;3.63;;;;;;;16.45;65.92;101957.19;4992836;28;20535;-75
2023/06/15 01:17:10;;;;;;;5.07;4.20;;;;;;;16.40;66.16;101958.53;4993528;28;20063;-75
2023/06/15 01:19:53;;;;;;;7.93;4.10;;;;;;;16.35;66.62;101959.16;4975320;28;20051;-75
2023/06/15 01:22:35;;;;;;;4.53;3.65;;;;;;;16.31;66.31;101962.00;4993313;28;20039;-75
2023/06/15 01:25:04;;;;;;;;;;;;;;;16.27;64.91;101961.41;4992795;28;20330;-75
2023/06/15 01:27:33;;;;;;;4.45;4.00;;;;;;;16.22;66.88;101969.31;4993421;28;20330;-75
2023/06/15 01:30:03;;;;;;;3.92;3.53;;;;;;;16.14;67.26;101962.75;4993759;28;20454;-75
2023/06/15 01:32:33;;;;;;;4.50;4.10;;;;;;;16.10;67.35;101962.16;4975045;28;20129;-75
2023/06/15 01:35:00;;;;;;;4.30;3.95;;;;;;;16.04;67.44;101959.31;4994035;28;20310;-75
2023/06/15 01:37:28;;;;;;;6.10;4.10;;;;;;;16.00;68.15;101956.03;4976384;28;20284;-75
2023/06/15 01:39:55;;;;;;;6.65;4.18;;;;;;;15.97;67.86;101962.31;4976922;28;20137;-75
2023/06/15 01:42:22;;;;;;;4.72;4.00;;;;;;;15.93;68.62;101950.97;4976237;28;20047;-75
2023/06/15 01:44:53;;;;;;;3.90;3.60;;;;;;;15.90;68.42;101954.53;4975714;28;20055;-75
2023/06/15 01:47:20;;;;;;;4.10;3.80;;;;;;;15.85;68.98;101953.19;4992038;28;20133;-75
2023/06/15 01:49:47;;;;;;;4.25;3.90;;;;;;;15.82;69.50;101959.47;4993374;28;20423;-75
2023/06/15 01:52:14;;;;;;;4.68;4.25;;;;;;;15.79;69.87;101956.91;4974928;28;20121;-75
2023/06/15 01:54:41;;;;;;;4.57;3.95;;;;;;;15.76;70.48;101958.56;4975156;28;20230;-74
2023/06/15 01:57:07;;;;;;;4.88;4.45;;;;;;;15.72;69.35;101955.25;4992381;28;20577;-74
2023/06/15 01:59:34;;;;;;;6.80;4.53;;;;;;;15.71;70.43;101961.06;4974621;28;20057;-74
2023/06/15 02:02:01;;;;;;;4.03;3.72;;;;;;;15.67;70.49;101958.53;4975430;28;20050;-77
2023/06/15 02:04:27;;;;;;;7.70;4.43;;;;;;;15.64;71.40;101962.09;4990806;28;20055;-76
2023/06/15 02:06:57;;;;;;;9.85;4.53;;;;;;;15.61;70.85;101963.75;4991721;28;20499;-74
2023/06/15 02:09:24;;;;;;;4.95;4.55;;;;;;;15.57;70.84;101957.78;4974240;28;20051;-77
2023/06/15 02:11:50;;;;;;;4.18;3.78;;;;;;;15.55;71.65;101959.41;4975387;28;20046;-76
2023/06/15 02:14:19;;;;;;;5.15;4.25;;;;;;;15.50;72.00;101971.47;4976820;28;20053;-77
2023/06/15 02:16:48;;;;;;;7.70;4.28;;;;;;;15.48;71.73;101967.72;4975497;28;20118;-77
2023/06/15 02:19:21;;;;;;;4.15;3.85;;;;;;;15.42;71.48;101961.44;4959936;28;20047;-77
2023/06/15 02:21:49;;;;;;;5.20;4.55;;;;;;;15.35;72.07;101960.53;4991601;28;20062;-76
2023/06/15 02:24:16;;;;;;;6.30;3.95;;;;;;;15.35;72.02;101957.84;4974630;28;20055;-76
2023/06/15 02:26:43;;;;;;;6.90;4.20;;;;;;;15.33;72.72;101957.53;4990447;28;20054;-77
2023/06/15 02:29:10;;;;;;;7.70;4.35;;;;;;;15.31;72.89;101964.53;4974249;28;20431;-76
2023/06/15 02:31:39;;;;;;;8.82;4.05;;;;;;;15.27;73.17;101961.25;4992463;28;20447;-76
2023/06/15 02:34:06;;;;;;;4.50;4.10;;;;;;;15.25;73.33;101968.97;4992379;28;20047;-76
2023/06/15 02:36:34;;;;;;;6.53;4.22;;;;;;;15.18;73.39;101970.03;4974686;28;20047;-76
2023/06/15 02:39:02;;;;;;;7.80;4.40;;;;;;;15.13;73.71;101964.47;4974931;28;20049;-76
2023/06/15 02:41:28;;;;;;;5.68;4.40;;;;;;;15.10;73.99;101974.16;4974174;28;20130;-77
2023/06/15 02:43:55;;;;;;;6.90;4.30;;;;;;;15.09;73.86;101969.97;4974394;28;20077;-77
2023/06/15 02:46:22;;;;;;;5.25;3.95;;;;;;;15.05;74.58;101966.69;4974200;28;20051;-76
2023/06/15 02:48:51;;;;;;;5.07;4.15;;;;;;;14.98;74.37;101969.63;4975650;28;20051;-77
2023/06/15 02:51:20;;;;;;;4.97;4.47;;;;;;;14.94;74.70;101969.00;4974317;28;20043;-76
2023/06/15 02:53:47;;;;;;;6.90;4.15;;;;;;;14.92;74.86;101966.75;4992458;28;20051;-76
2023/06/15 02:56:20;;;;;;;4.75;4.35;;;;;;;14.88;75.29;101968.06;4974213;28;20055;-76
2023/06/15 02:58:48;;;;;;;5.82;4.40;;;;;;;14.83;75.15;101972.06;4974336;28;20123;-76
2023/06/15 03:01:23;;;;;;;4.43;4.13;;;;;;;14.82;74.29;101967.16;4991819;28;20049;-77
2023/06/15 03:03:54;;;;;;;5.28;4.22;;;;;;;14.76;75.68;101966.25;4990842;28;20500;-76
2023/06/15 03:06:24;;;;;;;5.60;4.40;;;;;;;14.72;75.52;101969.06;4973940;28;20051;-76
2023/06/15 03:08:51;;;;;;;6.65;4.28;;;;;;;14.70;75.48;101974.09;4987241;28;20428;-77
2023/06/15 03:11:25;;;;;;;4.60;4.20;;;;;;;14.68;76.36;101979.16;4970619;28;20401;-77
2023/06/15 03:13:53;;;;;;;8.18;4.25;;;;;;;14.64;76.72;101970.50;4970856;28;20056;-76
2023/06/15 03:16:24;;;;;;;6.25;4.50;;;;;;;14.63;76.25;101971.66;4970654;28;20044;-77
2023/06/15 03:18:53;;;;;;;4.70;4.30;;;;;;;14.57;76.98;101976.84;4971191;28;20059;-76
2023/06/15 03:21:22;;;;;;;4.90;4.50;;;;;;;14.54;77.16;101966.25;4970467;28;20487;-76
2023/06/15 03:23:51;;;;;;;5.20;4.80;;;;;;;14.52;77.05;101977.41;4971838;28;20286;-76
2023/06/15 03:26:18;;;;;;;5.15;4.63;;;;;;;14.50;77.42;101976.34;4970505;28;20075;-76
2023/06/15 03:28:46;;;;;;;7.15;4.50;;;;;;;14.47;77.43;101974.53;4970231;28;20086;-76
2023/06/15 03:31:17;;;;;;;5.10;4.35;;;;;;;14.44;77.04;101978.81;4970249;28;20485;-76
2023/06/15 03:33:46;;;;;;;5.07;4.47;;;;;;;14.41;76.50;101982.38;4970783;28;20146;-76
2023/06/15 03:36:14;;;;;;;5.40;4.32;;;;;;;14.41;77.02;101986.97;4971345;28;20043;-76
2023/06/15 03:38:41;;;;;;;5.93;4.35;;;;;;;14.42;77.13;101983.13;4975681;28;20035;-76
2023/06/15 03:41:09;;;;;;;5.97;4.30;;;;;;;14.39;76.65;101981.31;4973297;28;20122;-76
2023/06/15 03:43:37;;;;;;;8.50;4.35;;;;;;;14.35;76.48;101984.88;4974049;28;20055;-75
2023/06/15 03:46:05;;;;;;;4.70;4.30;;;;;;;14.34;76.69;101983.38;4973684;28;20051;-77
2023/06/15 03:48:32;;;;;;;7.35;4.78;;;;;;;14.32;75.64;101983.06;4973695;28;20110;-76
2023/06/15 03:50:59;;;;;;;4.82;4.43;;;;;;;14.27;76.58;101983.59;4974261;28;20049;-75
2023/06/15 03:53:26;;;;;;;8.13;4.93;;;;;;;14.25;75.90;101979.88;4973504;28;20512;-76
2023/06/15 03:55:53;;;;;;;5.18;4.10;;;;;;;14.22;75.72;101986.09;4973644;28;20580;-77
2023/06/15 03:58:20;;;;;;;8.52;4.70;;;;;;;14.22;75.56;101980.72;4975575;28;20487;-76
2023/06/15 04:00:50;;;;;;;4.80;4.40;;;;;;;14.21;75.31;101984.59;4973924;28;20051;-76
2023/06/15 04:03:17;;;;;;;8.68;4.82;;;;;;;14.23;75.34;101987.56;4973607;28;20051;-76
2023/06/15 04:05:44;;;;;;;6.45;4.82;;;;;;;14.22;76.16;101989.50;4975584;28;20052;-76
2023/06/15 04:08:11;;;;;;;4.90;4.50;;;;;;;14.24;76.16;101994.44;4973428;28;20087;-76
2023/06/15 04:10:37;;;;;;;6.70;5.47;;;;;;;14.25;76.20;101987.91;4974698;28;20054;-76
2023/06/15 04:13:05;;;;;;;6.57;4.75;;;;;;;14.26;76.85;101989.41;4989359;28;20051;-76
2023/06/15 04:15:32;;;;;;;5.25;4.85;;;;;;;14.28;76.73;101989.72;4975149;28;20040;-76
2023/06/15 04:18:00;;;;;;;6.30;5.32;;;;;;;14.31;77.74;101992.28;4973785;28;20050;-76
2023/06/15 04:20:28;;;;;;;5.22;4.75;;;;;;;14.38;77.12;101990.53;4973099;28;20074;-76
2023/06/15 04:22:58;;;;;;;5.97;5.38;;;;;;;14.43;77.68;101987.31;4975395;28;20496;-76
2023/06/15 04:25:28;;;;;;;7.75;5.13;;;;;;;14.49;77.85;101988.25;4974112;28;20078;-76
2023/06/15 04:27:55;;;;;;;6.25;5.68;;;;;;;14.61;77.71;101987.44;4973436;28;20055;-76
2023/06/15 04:30:24;;;;;;;6.50;5.00;;;;;;;14.69;77.40;101991.38;4973601;28;20452;-76
2023/06/15 04:32:59;;;;;;;10.00;5.60;;;;;;;14.76;77.67;101985.00;4975536;28;20066;-76
2023/06/15 04:35:31;;;;;;;5.55;5.00;;;;;;;14.86;77.17;101989.97;4973178;28;20051;-76
2023/06/15 04:37:59;;;;;;;6.10;5.20;;;;;;;14.93;77.09;101997.00;4973479;28;20138;-76
2023/06/15 04:40:26;;;;;;;7.68;5.70;;;;;;;15.31;76.43;101992.09;4988581;28;20106;-76
2023/06/15 04:42:53;;;;;;;7.32;5.57;;;;;;;15.57;75.33;101997.31;4957354;28;20556;-75
2023/06/15 04:45:20;;;;;;;6.22;5.63;;;;;;;15.64;74.96;101994.31;4988840;28;20043;-74
2023/06/15 04:47:47;;;;;;;7.20;5.80;;;;;;;16.21;74.34;101994.69;4972613;28;20055;-74
2023/06/15 04:50:14;;;;;;;6.85;5.40;;;;;;;17.84;68.62;102008.09;4989208;28;20469;-75
2023/06/15 04:52:41;;;;;;;8.13;5.78;;;;;;;19.28;63.18;102009.84;4972864;28;20143;-75
2023/06/15 04:55:08;;;;;;;12.88;5.25;;;;;;;20.51;59.11;102011.34;4988665;28;20047;-75
2023/06/15 04:57:35;;;;;;;6.97;5.57;;;;;;;22.21;53.91;102010.63;4972714;28;20048;-75
2023/06/15 05:00:06;;;;;;;5.78;5.28;;;;;;;23.46;50.43;102012.78;4989378;28;20078;-74
2023/06/15 05:02:37;;;;;;;8.38;5.28;;;;;;;24.43;47.63;102017.97;4988992;28;20072;-75
2023/06/15 05:05:05;;;;;;;6.65;5.75;;;;;;;25.01;45.16;102015.78;4974577;28;20046;-74
2023/06/15 05:07:31;;;;;;;6.95;5.55;;;;;;;25.51;43.71;102017.97;4973683;28;20071;-75
2023/06/15 05:09:58;;;;;;;7.25;5.57;;;;;;;25.97;43.12;102018.91;4988281;28;20480;-75
2023/06/15 05:12:28;;;;;;;7.20;5.38;;;;;;;26.29;42.07;102018.94;4972216;28;20475;-74
2023/06/15 05:14:54;;;;;;;5.82;5.32;;;;;;;26.45;41.28;102026.13;4974381;28;20397;-74
2023/06/15 05:17:21;;;;;;;6.18;5.57;;;;;;;26.77;41.34;102028.84;4972346;28;20138;-75
2023/06/15 05:19:49;;;;;;;8.85;5.32;;;;;;;26.94;40.36;102019.63;4972652;28;20054;-74
2023/06/15 05:22:16;;;;;;;12.38;5.03;;;;;;;27.29;39.77;102024.69;4972590;28;20080;-74
2023/06/15 05:24:43;;;;;;;6.15;5.38;;;;;;;27.36;38.97;102031.53;4971999;28;20051;-75
2023/06/15 05:27:09;;;;;;;6.68;5.40;;;;;;;27.57;38.81;102029.63;4972350;28;20044;-75
2023/06/15 05:29:39;;;;;;;6.97;5.28;;;;;;;27.56;39.24;102030.88;4973464;28;20486;-74
2023/06/15 05:32:08;;;;;;;11.48;5.43;;;;;;;27.61;38.20;102029.31;4971949;28;20520;-74
2023/06/15 05:34:35;;;;;;;11.93;5.25;;;;;;;27.66;38.61;102025.72;4972402;28;20539;-75
2023/06/15 05:37:02;;;;;;;5.80;5.30;;;;;;;27.77;38.50;102028.22;4972374;28;20051;-76
2023/06/15 05:39:33;;;;;;;;;;;;;;;27.93;39.03;102029.13;4976181;28;20071;-76
2023/06/15 05:42:01;;;;;;;9.57;6.10;;;;;;;27.60;38.02;102036.78;4992037;28;19930;-75
2023/06/15 05:44:28;;;;;;;5.38;4.90;;;;;;;27.39;38.35;102033.19;4973479;28;20114;-75
2023/06/15 05:46:56;;;;;;;6.50;5.70;;;;;;;27.15;38.94;102039.63;4972264;28;20488;-76
2023/06/15 05:49:23;;;;;;;10.35;5.90;;;;;;;27.18;38.38;102041.31;4973259;28;20881;-76
2023/06/15 05:51:49;;;;;;;7.68;5.28;;;;;;;26.92;39.32;102042.72;4971952;28;20055;-75
2023/06/15 05:54:18;;;;;;;6.68;4.88;;;;;;;26.70;40.59;102039.66;4971922;28;20122;-76
2023/06/15 05:56:45;;;;;;;6.35;5.22;;;;;;;26.67;40.19;102037.97;4972316;28;20047;-75
2023/06/15 05:59:11;;;;;;;9.18;5.18;;;;;;;26.47;40.43;102039.25;4971631;28;20054;-75
2023/06/15 06:01:57;;;;;;;5.88;5.38;;;;;;;26.18;41.09;102033.47;4972316;28;20055;-74
2023/06/15 06:04:25;;;;;;;6.63;5.35;;;;;;;26.11;41.20;102039.53;4971578;28;20055;-74
2023/06/15 06:06:52;;;;;;;5.95;5.28;;;;;;;25.91;41.52;102043.53;4971891;28;20047;-74
2023/06/15 06:09:18;;;;;;;9.70;5.80;;;;;;;25.58;42.44;102041.19;4985024;28;20062;-78
2023/06/15 06:11:48;;;;;;;10.88;5.07;;;;;;;25.59;43.22;102048.13;4975788;28;20542;-77
2023/06/15 06:14:16;;;;;;;7.13;5.30;;;;;;;25.47;43.38;102049.50;4999841;28;20114;-78
2023/06/15 06:16:43;;;;;;;9.10;5.32;;;;;;;25.47;42.35;102044.78;4993299;28;20767;-77
2023/06/15 06:19:10;;;;;;;10.07;4.80;;;;;;;25.30;43.22;102046.22;4991280;28;20101;-77
2023/06/15 06:21:37;;;;;;;7.88;5.10;;;;;;;25.22;42.80;102046.78;4974762;28;20050;-79
2023/06/15 06:24:03;;;;;;;9.05;5.32;;;;;;;25.27;42.74;102047.97;4975001;28;20074;-79
2023/06/15 06:26:34;;;;;;;9.48;5.18;;;;;;;25.15;42.81;102043.91;4976421;28;20047;-77
2023/06/15 06:29:00;;;;;;;5.05;4.57;;;;;;;25.22;43.14;102046.78;4988144;28;20043;-78
2023/06/15 06:31:27;;;;;;;8.40;5.30;;;;;;;25.03;44.28;102045.25;4972846;28;20159;-76
2023/06/15 06:33:53;;;;;;;11.02;5.40;;;;;;;24.90;44.15;102045.81;4973117;28;20039;-78
2023/06/15 06:36:20;;;;;;;8.15;5.35;;;;;;;24.79;45.04;102043.22;4970684;28;20070;-78
2023/06/15 06:38:47;;;;;;;6.78;5.15;;;;;;;24.85;45.47;102035.72;4973397;28;20551;-78
2023/06/15 06:41:28;;;;;;;;;;;;;;;24.97;44.37;102041.84;4973162;28;20047;-78
2023/06/15 06:43:54;;;;;;;8.88;5.30;;;;;;;24.96;44.84;102045.81;4973261;28;19965;-79
2023/06/15 06:46:22;;;;;;;9.32;5.40;;;;;;;24.91;44.80;102042.59;4971570;28;20050;-78
2023/06/15 06:48:49;;;;;;;15.55;5.10;;;;;;;24.85;45.21;102049.31;4983964;28;20047;-79
2023/06/15 06:51:16;;;;;;;9.20;5.30;;;;;;;24.92;44.34;102054.97;4972958;28;20043;-81
2023/06/15 06:53:43;;;;;;;8.10;5.40;;;;;;;24.94;44.87;102051.72;4972772;28;20054;-76
2023/06/15 06:56:09;;;;;;;7.72;5.40;;;;;;;24.98;43.60;102051.47;4972529;28;20102;-74
2023/06/15 06:58:36;;;;;;;10.18;5.55;;;;;;;25.07;44.49;102042.97;4955005;28;20143;-74
2023/06/15 07:01:02;;;;;;;6.40;5.07;;;;;;;25.19;44.43;102047.09;4973008;28;20051;-76
2023/06/15 07:03:29;;;;;;;12.23;5.30;;;;;;;25.27;44.15;102051.44;4972515;28;20559;-74
2023/06/15 07:05:56;;;;;;;5.75;5.25;;;;;;;25.41;43.76;102051.53;4972602;28;20047;-74
2023/06/15 07:08:23;;;;;;;6.10;5.53;;;;;;;25.42;43.50;102056.47;4971588;28;20425;-75
2023/06/15 07:10:49;;;;;;;9.10;5.22;;;;;;;25.29;44.02;102055.63;4972746;28;20082;-74
2023/06/15 07:13:16;;;;;;;11.60;5.97;;;;;;;25.20;43.45;102059.44;4976111;28;20047;-76
2023/06/15 07:15:42;;;;;;;7.45;5.88;;;;;;;25.21;43.41;102058.19;4976104;28;20039;-73
2023/06/15 07:18:13;;;;;;;6.45;5.28;;;;;;;25.30;43.45;102062.56;4975758;28;20130;-73
2023/06/15 07:20:40;;;;;;;9.05;5.57;;;;;;;25.47;43.46;102058.41;4975546;28;20512;-75
2023/06/15 07:23:07;;;;;;;6.68;5.45;;;;;;;25.57;42.94;102062.28;4977881;28;20559;-75
2023/06/15 07:25:34;;;;;;;9.35;5.90;;;;;;;25.79;42.70;102066.00;4975758;28;20043;-75
2023/06/15 07:28:01;;;;;;;9.38;6.05;;;;;;;25.95;41.22;102065.06;4975852;28;20119;-74
2023/06/15 07:30:29;;;;;;;8.57;5.13;;;;;;;26.04;41.57;102055.75;4975199;28;20062;-77
2023/06/15 07:32:56;;;;;;;8.52;5.78;;;;;;;26.09;41.54;102061.13;4975506;28;20054;-75
2023/06/15 07:35:22;;;;;;;9.15;5.65;;;;;;;26.26;42.45;102063.63;4975238;28;20505;-76
2023/06/15 07:37:49;;;;;;;11.20;6.00;;;;;;;26.33;42.21;102054.16;4974295;28;20043;-75
2023/06/15 07:40:16;;;;;;;8.07;5.40;;;;;;;26.47;42.09;102055.66;4975231;28;20082;-74
2023/06/15 07:42:43;;;;;;;6.72;6.13;;;;;;;26.45;42.15;102055.44;4974194;28;20150;-77
2023/06/15 07:45:10;;;;;;;9.18;6.05;;;;;;;26.50;42.20;102060.06;4975454;28;20093;-75
2023/06/15 07:47:36;;;;;;;9.90;5.90;;;;;;;26.45;41.64;102060.88;4974883;28;20047;-75
2023/06/15 07:50:03;;;;;;;9.85;5.65;;;;;;;26.68;42.52;102064.75;4973974;28;20059;-76
2023/06/15 07:52:30;;;;;;;8.85;5.72;;;;;;;26.87;41.31;102064.69;4973938;28;20057;-77
2023/06/15 07:54:56;;;;;;;6.85;6.13;;;;;;;27.03;40.86;102052.03;4975766;28;20075;-75
2023/06/15 07:57:23;;;;;;;13.45;5.93;;;;;;;27.09;39.30;102049.94;4976878;28;20054;-75
2023/06/15 07:59:49;;;;;;;10.05;5.53;;;;;;;27.18;39.52;102060.44;4975568;28;20047;-75
2023/06/15 08:02:16;;;;;;;9.70;5.72;;;;;;;27.25;39.80;102057.06;4974759;28;20528;-75
2023/06/15 08:04:43;;;;;;;10.63;5.60;;;;;;;27.29;37.90;102054.03;4974174;28;20107;-76
2023/06/15 08:07:09;;;;;;;7.40;5.10;;;;;;;27.58;38.32;102050.22;4974994;28;20217;-76
2023/06/15 08:09:36;;;;;;;10.18;5.63;;;;;;;27.55;37.53;102052.03;4974831;28;20066;-77
2023/06/15 08:12:03;;;;;;;12.65;5.93;;;;;;;27.69;37.13;102058.22;5006308;28;20047;-76
2023/06/15 08:14:30;;;;;;;6.50;5.32;;;;;;;27.82;37.59;102057.47;4974870;28;20106;-77
2023/06/15 08:16:56;;;;;;;5.95;5.18;;;;;;;27.86;36.81;102050.41;4974981;28;20122;-77
2023/06/15 08:19:24;;;;;;;10.07;5.78;;;;;;;28.04;36.89;102048.03;4974863;28;20055;-76
2023/06/15 08:21:50;;;;;;;7.43;5.60;;;;;;;28.19;37.08;102048.91;4975141;28;20106;-77
2023/06/15 08:24:17;;;;;;;8.65;5.15;;;;;;;28.29;36.22;102040.28;4973875;28;20500;-77
2023/06/15 08:26:44;;;;;;;5.95;4.25;;;;;;;28.45;36.16;102042.59;4975059;28;20552;-77
2023/06/15 08:29:11;;;;;;;5.28;4.63;;;;;;;28.49;35.39;102050.50;4973094;28;20059;-76
2023/06/15 08:31:40;;;;;;;7.38;4.82;;;;;;;28.63;35.65;102043.69;4981951;28;20053;-77
2023/06/15 08:34:09;;;;;;;8.63;4.10;;;;;;;28.65;35.74;102043.88;4974741;28;20042;-77
2023/06/15 08:36:37;;;;;;;6.32;4.35;;;;;;;28.86;36.13;102060.31;4975329;28;20415;-77
2023/06/15 08:39:03;;;;;;;6.45;4.45;;;;;;;29.04;35.72;102058.59;4993488;28;20054;-77
2023/06/15 08:41:31;;;;;;;9.55;4.53;;;;;;;29.03;33.96;102057.16;4993128;28;20042;-77
2023/06/15 08:43:58;;;;;;;12.45;4.60;;;;;;;29.01;35.13;102065.16;4955865;28;20052;-78
2023/06/15 08:46:25;;;;;;;17.27;5.03;;;;;;;29.09;34.05;102052.97;4973678;28;20047;-77
2023/06/15 08:48:52;;;;;;;13.05;4.50;;;;;;;29.29;34.39;102061.66;4992583;28;20054;-77
2023/06/15 08:51:22;;;;;;;4.90;3.60;;;;;;;29.44;33.58;102059.78;4959722;28;20058;-78
2023/06/15 08:53:50;;;;;;;;;;;;;;;29.65;34.16;102059.66;4992652;28;20117;-78
2023/06/15 08:56:16;;;;;;;6.68;3.75;;;;;;;29.56;34.25;102057.47;4993716;28;20024;-77
2023/06/15 08:58:49;;;;;;;6.82;4.13;;;;;;;29.59;33.27;102055.66;4992713;28;20050;-77
2023/06/15 09:01:21;;;;;;;10.70;4.70;;;;;;;29.66;32.80;102055.66;4992400;28;20102;-77
2023/06/15 09:03:55;;;;;;;6.50;4.20;;;;;;;29.82;33.88;102061.94;4992945;28;20049;-75
2023/06/15 09:06:23;;;;;;;6.57;3.58;;;;;;;29.70;32.71;102049.81;5000523;28;20596;-79
2023/06/15 09:08:51;;;;;;;7.53;4.30;;;;;;;29.42;33.08;102048.63;4995240;28;20074;-76
2023/06/15 09:11:18;;;;;;;5.30;4.00;;;;;;;29.62;33.61;102052.53;4992538;28;20046;-77
2023/06/15 09:13:45;;;;;;;5.22;4.63;;;;;;;29.82;34.35;102045.47;4992269;28;20113;-76
2023/06/15 09:16:12;;;;;;;15.93;4.55;;;;;;;29.93;32.90;102045.13;4992525;28;20046;-76
2023/06/15 09:18:44;;;;;;;8.48;4.13;;;;;;;30.15;31.47;102043.72;4992777;28;20446;-77
2023/06/15 09:21:13;;;;;;;8.63;4.10;;;;;;;29.96;30.61;102054.28;4993597;28;20051;-77
2023/06/15 09:23:42;;;;;;;6.90;4.32;;;;;;;29.91;31.12;102049.69;4975899;28;20074;-75
2023/06/15 09:26:09;;;;;;;5.85;3.70;;;;;;;30.14;31.67;102042.25;4992947;28;20047;-75
2023/06/15 09:28:44;;;;;;;3.88;3.58;;;;;;;30.25;30.35;102044.66;4993014;28;20047;-74
2023/06/15 09:31:27;;;;;;;4.78;3.20;;;;;;;30.35;30.91;102050.34;4991820;28;20043;-75
2023/06/15 09:34:05;;;;;;;5.32;3.25;;;;;;;30.44;30.56;102041.53;4992121;28;20167;-74
2023/06/15 09:36:35;;;;;;;10.93;3.75;;;;;;;30.63;30.88;102041.22;4993163;28;20463;-75
2023/06/15 09:39:04;;;;;;;7.70;3.70;;;;;;;30.64;29.58;102040.66;4993349;28;20046;-74
2023/06/15 09:41:32;;;;;;;11.38;3.55;;;;;;;30.65;29.64;102036.63;4975614;28;20520;-75
2023/06/15 09:44:03;;;;;;;8.10;3.67;;;;;;;30.35;30.39;102042.84;4992555;28;20057;-74
2023/06/15 09:46:30;;;;;;;;;;;;;;;30.62;31.28;102037.72;4975704;28;20062;-75
2023/06/15 09:48:56;;;;;;;11.65;4.25;;;;;;;30.48;31.05;102034.41;4993588;28;19980;-74
2023/06/15 09:51:28;;;;;;;5.88;4.18;;;;;;;30.35;32.19;102031.13;4991344;28;20066;-76
2023/06/15 09:53:59;;;;;;;7.20;3.78;;;;;;;30.44;30.49;102027.81;4992300;28;20514;-77
2023/06/15 09:56:26;;;;;;;7.30;3.60;;;;;;;30.56;30.64;102030.94;4991702;28;20117;-76
2023/06/15 09:59:02;;;;;;;7.18;3.65;;;;;;;30.65;28.52;102025.66;4991383;28;20045;-77
2023/06/15 10:01:33;;;;;;;10.98;3.60;;;;;;;30.74;28.49;102022.34;4991627;28;20075;-77
2023/06/15 10:04:03;;;;;;;3.72;3.42;;;;;;;30.96;29.25;102029.06;4992658;28;20054;-77
2023/06/15 10:06:33;;;;;;;5.95;3.35;;;;;;;30.93;26.83;102021.19;4992008;28;20167;-76
2023/06/15 10:09:03;;;;;;;8.18;3.30;;;;;;;31.06;27.04;102020.97;4991993;28;20059;-78
2023/06/15 10:11:31;;;;;;;3.90;3.50;;;;;;;30.96;28.08;102020.09;4974994;28;20047;-77
2023/06/15 10:14:05;;;;;;;8.52;3.50;;;;;;;31.20;27.19;102024.97;4992968;28;20066;-77
2023/06/15 10:16:33;;;;;;;7.07;3.13;;;;;;;31.46;26.29;102023.78;4998845;28;20051;-76
2023/06/15 10:19:04;;;;;;;15.48;3.38;;;;;;;31.66;26.63;102020.00;4993220;28;20047;-77
2023/06/15 10:21:36;;;;;;;4.55;3.10;;;;;;;31.37;27.00;102027.88;4974671;28;20156;-74
2023/06/15 10:24:12;;;;;;;3.50;3.20;;;;;;;31.33;26.24;102021.28;4992215;28;20126;-73
2023/06/15 10:26:40;;;;;;;7.32;3.17;;;;;;;31.40;26.32;102029.50;4992445;28;20085;-73
2023/06/15 10:29:12;;;;;;;5.05;3.10;;;;;;;31.94;26.84;102021.72;4991948;28;20046;-74
2023/06/15 10:32:00;;;;;;;5.90;3.17;;;;;;;32.22;25.91;102025.41;4992647;28;20042;-73
2023/06/15 10:34:42;;;;;;;5.35;3.05;;;;;;;32.31;25.48;102016.53;4992264;28;20054;-73
2023/06/15 10:37:20;;;;;;;9.57;2.90;;;;;;;32.33;25.28;102028.44;4992430;28;20046;-73
2023/06/15 10:39:49;;;;;;;4.50;2.70;;;;;;;32.42;24.97;102024.31;4993107;28;20134;-74
2023/06/15 10:42:16;;;;;;;9.15;3.08;;;;;;;32.39;24.48;102028.91;4957782;28;20546;-73
2023/06/15 10:44:43;;;;;;;4.95;3.20;;;;;;;32.38;24.55;102033.00;4992408;28;20074;-73
2023/06/15 10:47:11;;;;;;;2.97;2.75;;;;;;;32.36;23.78;102023.84;4973168;28;20423;-74
2023/06/15 10:49:52;;;;;;;5.50;2.90;;;;;;;32.54;24.64;102030.09;4978625;28;20342;-77
2023/06/15 10:52:19;;;;;;;3.00;2.70;;;;;;;32.49;24.21;102026.28;4991777;28;20145;-78
2023/06/15 10:54:46;;;;;;;4.85;2.90;;;;;;;31.86;23.82;102021.03;4992600;28;20576;-77
2023/06/15 10:57:17;;;;;;;5.90;3.33;;;;;;;31.39;25.50;102025.28;4991199;28;20043;-76
2023/06/15 10:59:54;;;;;;;6.47;3.20;;;;;;;31.20;27.04;102027.72;4992571;28;20054;-76
2023/06/15 11:02:32;;;;;;;13.43;3.63;;;;;;;31.04;27.06;102029.06;4973940;28;20055;-76
2023/06/15 11:05:10;;;;;;;7.05;3.72;;;;;;;31.36;27.15;102029.16;4992552;28;20101;-76
2023/06/15 11:07:39;;;;;;;8.52;3.70;;;;;;;31.21;27.32;102020.22;4991026;28;20666;-75
2023/06/15 11:10:10;;;;;;;4.95;3.75;;;;;;;30.85;27.53;102024.69;4989663;28;20123;-75
2023/06/15 11:12:37;;;;;;;;;;;;;;;30.97;28.17;102021.56;4990056;28;20038;-75
2023/06/15 11:15:06;;;;;;;7.97;3.42;;;;;;;31.28;26.18;102028.44;4990505;28;19926;-75
2023/06/15 11:17:52;;;;;;;14.02;4.65;;;;;;;31.72;26.28;102017.06;4988429;28;20055;-74
2023/06/15 11:20:37;;;;;;;5.72;3.42;;;;;;;31.62;26.46;102013.44;4989237;28;20143;-74
2023/06/15 11:23:16;;;;;;;5.30;3.70;;;;;;;31.80;26.31;102007.50;4991628;28;20081;-76
2023/06/15 11:25:47;;;;;;;3.72;3.13;;;;;;;31.96;25.01;102013.63;4975036;28;20138;-75
2023/06/15 11:28:17;;;;;;;3.53;3.20;;;;;;;32.11;23.77;102013.50;4974429;28;20125;-75
2023/06/15 11:31:03;;;;;;;6.15;3.33;;;;;;;32.20;23.88;102011.44;4991952;28;20055;-75
2023/06/15 11:33:37;;;;;;;9.20;3.50;;;;;;;32.51;24.21;102011.94;4991713;28;20537;-75